Time;durP1;ratioP1;P1;durP2;ratioP2;P2;SDS_P1;SDS_P2;PMS_P1;PMS_P2;Temp;Humidity;BMP_temperature;BMP_pressure;BME280_temperature;BME280_humidity;BME280_pressure;Samples;Min_cycle;Max_cycle;Signal;HPM_P1;HPM_P2
2021/08/23 03:46:54;;;;;;;8.93;3.88;;;;;;;;;;5304701;23;20053;-84
2021/08/23 03:49:28;;;;;;;9.07;3.92;;;;;;;;;;4899148;29;20119;-85
2021/08/23 03:51:54;;;;;;;7.70;4.00;;;;;;;;;;4878697;29;20112;-84
2021/08/23 03:54:19;;;;;;;8.40;4.10;;;;;;;;;;4850427;29;20040;-83
2021/08/23 03:56:45;;;;;;;11.57;4.13;;;;;;;;;;4854165;29;20153;-84
2021/08/23 03:59:10;;;;;;;9.10;4.23;;;;;;;;;;4846615;29;20108;-84
2021/08/23 04:01:35;;;;;;;8.30;3.97;;;;;;;;;;4850635;29;20439;-84
2021/08/23 04:04:01;;;;;;;8.40;4.37;;;;;;;;;;4844979;29;20162;-84
2021/08/23 04:06:26;;;;;;;9.10;4.13;;;;;;;;;;4844826;29;20025;-84
2021/08/23 04:08:51;;;;;;;10.20;4.40;;;;;;;;;;4844740;29;20116;-84
2021/08/23 04:11:17;;;;;;;10.57;4.03;;;;;;;;;;4847609;29;20029;-84
2021/08/23 04:13:42;;;;;;;12.10;4.33;;;;;;;;;;4847820;29;20116;-84
2021/08/23 04:16:15;;;;;;;11.00;4.43;;;;;;;;;;4863048;29;20104;-84
2021/08/23 04:18:41;;;;;;;7.75;4.25;;;;;;;;;;4847549;29;20085;-84
2021/08/23 04:21:06;;;;;;;10.20;4.30;;;;;;;;;;4862758;29;20052;-84
2021/08/23 04:23:32;;;;;;;9.23;4.67;;;;;;;;;;4847629;29;20029;-84
2021/08/23 04:25:57;;;;;;;10.60;4.23;;;;;;;;;;4847592;29;20037;-84
2021/08/23 04:28:23;;;;;;;9.27;4.40;;;;;;;;;;4847519;29;20025;-84
2021/08/23 04:30:48;;;;;;;10.53;4.63;;;;;;;;;;4862894;29;20079;-84
2021/08/23 04:33:16;;;;;;;9.70;4.27;;;;;;;;;;4847868;29;20036;-86
2021/08/23 04:36:07;;;;;;;7.90;4.10;;;;;;;;;;4851410;29;20044;-85
2021/08/23 04:39:04;;;;;;;8.83;4.10;;;;;;;;;;4865046;29;20037;-85
2021/08/23 04:41:37;;;;;;;9.73;4.00;;;;;;;;;;4864044;29;20048;-85
2021/08/23 04:44:11;;;;;;;11.82;5.55;;;;;;;;;;4847099;29;20057;-86
2021/08/23 04:46:42;;;;;;;10.43;4.78;;;;;;;;;;4862837;29;20088;-84
2021/08/23 04:49:08;;;;;;;10.07;5.23;;;;;;;;;;4847378;29;20021;-84
2021/08/23 04:51:34;;;;;;;10.73;4.77;;;;;;;;;;4847135;29;20025;-84
2021/08/23 04:54:00;;;;;;;10.48;4.22;;;;;;;;;;4832123;29;20540;-85
2021/08/23 04:56:25;;;;;;;8.43;4.57;;;;;;;;;;4847149;29;20069;-86
2021/08/23 04:58:52;;;;;;;11.43;4.53;;;;;;;;;;4846960;29;20181;-85
2021/08/23 05:01:18;;;;;;;10.25;4.82;;;;;;;;;;4832063;29;20453;-84
2021/08/23 05:03:51;;;;;;;9.23;4.68;;;;;;;;;;4832122;29;20478;-85
2021/08/23 05:06:17;;;;;;;9.65;4.53;;;;;;;;;;4846972;29;20052;-84
2021/08/23 05:08:46;;;;;;;11.73;4.50;;;;;;;;;;4846963;29;20033;-85
2021/08/23 05:14:34;;;;;;;11.52;4.30;;;;;;;;;;4879122;29;20113;-84
2021/08/23 05:16:59;;;;;;;7.90;4.40;;;;;;;;;;4846273;29;20021;-84
2021/08/23 05:19:28;;;;;;;8.47;3.77;;;;;;;;;;4846473;29;20116;-84
2021/08/23 05:22:01;;;;;;;8.13;4.15;;;;;;;;;;4845845;29;20037;-84
2021/08/23 05:24:46;;;;;;;8.88;4.40;;;;;;;;;;4844727;29;20033;-84
2021/08/23 05:27:13;;;;;;;8.82;4.53;;;;;;;;;;4861233;29;20029;-84
2021/08/23 05:29:46;;;;;;;8.75;4.30;;;;;;;;;;4861766;29;20526;-84
2021/08/23 05:35:33;;;;;;;11.15;4.63;;;;;;;;;;4858156;29;20055;-84
2021/08/23 05:38:22;;;;;;;9.50;4.38;;;;;;;;;;4859748;29;20085;-84
2021/08/23 05:41:02;;;;;;;10.75;4.70;;;;;;;;;;4857240;29;20046;-84
2021/08/23 05:43:32;;;;;;;9.25;4.30;;;;;;;;;;4844861;29;20029;-88
2021/08/23 05:46:00;;;;;;;;;;;;;;;;;;4828344;29;20112;-86
2021/08/23 05:48:28;;;;;;;;;;;;;;;;;;4828976;29;19991;-86
2021/08/23 05:51:02;;;;;;;9.52;4.43;;;;;;;;;;4828031;29;19971;-86
2021/08/23 05:53:31;;;;;;;9.02;4.28;;;;;;;;;;4842878;29;20523;-87
2021/08/23 05:56:00;;;;;;;12.90;5.30;;;;;;;;;;4861570;29;20069;-86
2021/08/23 05:58:29;;;;;;;9.95;4.80;;;;;;;;;;4861388;29;20081;-86
2021/08/23 06:00:57;;;;;;;8.60;4.38;;;;;;;;;;4846019;29;20043;-86
2021/08/23 06:03:25;;;;;;;9.10;4.90;;;;;;;;;;4860615;29;20040;-86
2021/08/23 06:05:59;;;;;;;7.95;4.45;;;;;;;;;;4858714;29;20044;-86
2021/08/23 06:08:29;;;;;;;;;;;;;;;;;;4878399;29;20546;-86
2021/08/23 06:11:08;;;;;;;8.70;4.22;;;;;;;;;;4861178;29;19911;-87
2021/08/23 06:13:39;;;;;;;7.80;4.20;;;;;;;;;;4861879;29;20112;-88
2021/08/23 06:16:23;;;;;;;8.70;4.28;;;;;;;;;;4861370;29;20060;-84
2021/08/23 06:18:54;;;;;;;9.98;4.40;;;;;;;;;;4817911;29;20037;-85
2021/08/23 06:21:39;;;;;;;9.07;4.20;;;;;;;;;;4845884;29;20513;-88
2021/08/23 06:24:12;;;;;;;8.23;4.50;;;;;;;;;;4857736;29;20105;-85
2021/08/23 06:26:46;;;;;;;7.18;3.80;;;;;;;;;;4832511;29;20034;-86
2021/08/23 06:29:14;;;;;;;7.45;4.20;;;;;;;;;;4860132;29;20025;-87
2021/08/23 06:31:41;;;;;;;8.45;4.25;;;;;;;;;;4861329;29;20048;-87
2021/08/23 06:34:08;;;;;;;8.05;4.22;;;;;;;;;;4845576;29;20067;-87
2021/08/23 06:36:35;;;;;;;9.77;4.18;;;;;;;;;;4830843;29;20044;-87
2021/08/23 06:39:07;;;;;;;12.32;4.68;;;;;;;;;;4845939;29;20033;-87
2021/08/23 06:44:52;;;;;;;8.18;4.65;;;;;;;;;;4860110;29;20127;-87
2021/08/23 06:47:53;;;;;;;10.13;5.07;;;;;;;;;;4867571;29;20080;-87
2021/08/23 06:50:44;;;;;;;8.05;4.78;;;;;;;;;;4863592;29;20119;-88
2021/08/23 06:53:14;;;;;;;9.00;5.35;;;;;;;;;;4856870;29;20025;-87
2021/08/23 06:55:47;;;;;;;8.85;4.80;;;;;;;;;;4828077;29;20059;-88
2021/08/23 06:59:08;;;;;;;9.10;4.88;;;;;;;;;;4842388;29;20181;-88
2021/08/23 07:01:58;;;;;;;8.95;4.75;;;;;;;;;;4858831;29;20037;-87
2021/08/23 07:04:51;;;;;;;8.68;4.80;;;;;;;;;;4860634;29;20056;-88
2021/08/23 07:07:37;;;;;;;9.00;4.63;;;;;;;;;;4836513;29;20089;-87
2021/08/23 07:12:54;;;;;;;9.20;5.20;;;;;;;;;;4866345;29;20040;-87
2021/08/23 07:15:59;;;;;;;8.80;4.30;;;;;;;;;;4864250;29;20056;-87
2021/08/23 07:19:00;;;;;;;7.38;4.03;;;;;;;;;;4879105;29;20033;-87
2021/08/23 07:22:01;;;;;;;6.38;3.95;;;;;;;;;;4869725;29;20043;-88
2021/08/23 07:25:17;;;;;;;8.25;4.18;;;;;;;;;;4870321;29;20029;-87
2021/08/23 07:28:45;;;;;;;9.77;4.05;;;;;;;;;;4833301;29;20093;-87
2021/08/23 07:31:46;;;;;;;7.45;3.55;;;;;;;;;;4864738;29;20043;-87
2021/08/23 07:35:03;;;;;;;6.10;3.53;;;;;;;;;;4867279;29;20029;-88
2021/08/23 07:38:03;;;;;;;6.85;3.90;;;;;;;;;;4843106;29;20112;-87
2021/08/23 07:40:33;;;;;;;7.63;3.65;;;;;;;;;;4862244;29;20069;-87
2021/08/23 07:43:49;;;;;;;10.68;3.83;;;;;;;;;;4866822;29;20037;-88
2021/08/23 07:46:45;;;;;;;6.73;3.80;;;;;;;;;;4848893;29;20044;-88
2021/08/23 07:49:24;;;;;;;6.93;3.78;;;;;;;;;;4853890;29;20038;-87
2021/08/23 07:52:07;;;;;;;6.38;3.35;;;;;;;;;;4817242;29;20048;-88
2021/08/23 07:55:03;;;;;;;8.75;3.92;;;;;;;;;;4879633;29;20052;-87
2021/08/23 07:58:08;;;;;;;6.10;3.63;;;;;;;;;;4863391;29;20036;-88
2021/08/23 08:00:48;;;;;;;7.10;3.45;;;;;;;;;;4864434;29;20416;-88
2021/08/23 08:03:52;;;;;;;6.00;3.40;;;;;;;;;;4866465;29;20108;-88
2021/08/23 08:06:58;;;;;;;5.80;3.30;;;;;;;;;;4858652;29;20044;-88
2021/08/23 08:10:21;;;;;;;6.28;3.47;;;;;;;;;;4840727;29;20086;-87
2021/08/23 08:13:26;;;;;;;5.88;3.35;;;;;;;;;;4840326;29;20439;-87
2021/08/23 08:16:16;;;;;;;8.00;3.92;;;;;;;;;;4839092;29;20500;-88
2021/08/23 08:19:23;;;;;;;5.40;3.03;;;;;;;;;;4839339;29;20050;-87
2021/08/23 08:22:05;;;;;;;6.18;3.40;;;;;;;;;;4838329;29;20071;-87
2021/08/23 08:25:25;;;;;;;7.53;3.55;;;;;;;;;;4822215;29;20054;-88
2021/08/23 08:29:07;;;;;;;6.68;3.15;;;;;;;;;;4835810;29;20045;-88
2021/08/23 08:32:50;;;;;;;7.07;3.20;;;;;;;;;;4832490;29;20652;-88
2021/08/23 08:36:09;;;;;;;7.55;2.92;;;;;;;;;;4783968;29;20550;-88
2021/08/23 08:43:15;;;;;;;5.10;3.00;;;;;;;;;;4879634;29;20147;-88
2021/08/23 08:49:04;;;;;;;5.45;2.95;;;;;;;;;;4839069;29;20064;-87
2021/08/23 08:51:30;;;;;;;6.25;3.17;;;;;;;;;;4809680;29;20117;-88
2021/08/23 08:53:55;;;;;;;7.43;3.05;;;;;;;;;;4845129;29;20037;-88
2021/08/23 08:56:21;;;;;;;6.50;3.00;;;;;;;;;;4847318;29;20504;-87
2021/08/23 08:58:51;;;;;;;6.77;3.30;;;;;;;;;;4847088;29;20029;-88
2021/08/23 09:01:36;;;;;;;6.20;3.40;;;;;;;;;;4847199;29;20383;-88
2021/08/23 09:04:05;;;;;;;5.03;3.22;;;;;;;;;;4862035;29;20490;-88
2021/08/23 09:06:38;;;;;;;5.63;2.90;;;;;;;;;;4862400;29;20036;-88
2021/08/23 09:09:10;;;;;;;5.43;2.90;;;;;;;;;;4847051;29;20514;-88
2021/08/23 09:11:38;;;;;;;4.80;3.00;;;;;;;;;;4846495;29;20388;-89
2021/08/23 09:14:06;;;;;;;4.90;2.92;;;;;;;;;;4862028;29;20060;-87
2021/08/23 09:16:44;;;;;;;4.93;2.80;;;;;;;;;;4847335;29;20393;-87
2021/08/23 09:19:24;;;;;;;4.82;2.85;;;;;;;;;;4877543;29;20498;-87
2021/08/23 09:22:48;;;;;;;7.32;2.75;;;;;;;;;;4846280;29;20060;-87
2021/08/23 09:25:31;;;;;;;7.10;2.50;;;;;;;;;;4837829;29;20048;-88
2021/08/23 09:28:07;;;;;;;5.68;2.60;;;;;;;;;;4820901;29;20756;-88
2021/08/23 09:30:33;;;;;;;5.68;3.20;;;;;;;;;;4858035;29;20044;-88
2021/08/23 09:33:03;;;;;;;5.03;2.97;;;;;;;;;;4828299;29;20029;-87
2021/08/23 09:35:30;;;;;;;6.72;3.22;;;;;;;;;;4843234;29;20029;-88
2021/08/23 09:37:56;;;;;;;4.97;3.30;;;;;;;;;;4828384;29;20040;-87
2021/08/23 09:40:51;;;;;;;6.20;3.33;;;;;;;;;;4828171;29;20057;-88
2021/08/23 09:44:07;;;;;;;5.05;2.90;;;;;;;;;;4859810;29;20052;-87
2021/08/23 09:47:20;;;;;;;6.25;3.50;;;;;;;;;;4876669;29;20041;-87
2021/08/23 09:50:38;;;;;;;5.55;3.30;;;;;;;;;;4855570;29;20132;-88
2021/08/23 09:54:04;;;;;;;4.35;2.40;;;;;;;;;;4834684;29;20045;-86
2021/08/23 09:57:16;;;;;;;4.40;2.80;;;;;;;;;;4838569;29;20129;-85
2021/08/23 10:04:19;;;;;;;4.90;2.67;;;;;;;;;;4839418;29;20053;-86
2021/08/23 10:11:33;;;;;;;6.22;3.15;;;;;;;;;;4756664;30;20569;-86
2021/08/23 10:15:07;;;;;;;5.88;3.10;;;;;;;;;;4699144;30;20050;-87
2021/08/23 10:18:20;;;;;;;;;;;;;;;;;;4729544;30;20040;-86
2021/08/23 10:21:30;;;;;;;5.43;3.30;;;;;;;;;;4686209;30;20305;-87
2021/08/23 10:24:44;;;;;;;5.70;3.22;;;;;;;;;;4706459;30;20184;-86
2021/08/23 10:28:07;;;;;;;5.70;2.95;;;;;;;;;;4722664;30;20561;-86
2021/08/23 10:31:18;;;;;;;4.97;3.17;;;;;;;;;;4693368;30;20042;-87
2021/08/23 10:34:13;;;;;;;6.07;3.17;;;;;;;;;;4680675;30;20099;-86
2021/08/23 10:36:54;;;;;;;5.03;3.17;;;;;;;;;;4770932;30;20628;-85
2021/08/23 10:39:25;;;;;;;6.55;3.50;;;;;;;;;;4790508;29;20051;-85
2021/08/23 10:45:59;;;;;;;5.55;3.33;;;;;;;;;;4860428;29;20118;-86
2021/08/23 10:48:52;;;;;;;6.90;3.78;;;;;;;;;;4823383;29;20041;-86
2021/08/23 10:52:04;;;;;;;8.25;4.53;;;;;;;;;;4840383;29;20038;-86
2021/08/23 10:54:55;;;;;;;6.55;3.83;;;;;;;;;;4811578;29;20154;-86
2021/08/23 10:57:25;;;;;;;7.53;4.22;;;;;;;;;;4841828;29;20056;-87
2021/08/23 11:00:40;;;;;;;8.18;4.10;;;;;;;;;;4839925;29;20050;-86
2021/08/23 11:03:36;;;;;;;7.32;3.70;;;;;;;;;;4769002;30;20039;-86
2021/08/23 11:06:56;;;;;;;6.75;3.22;;;;;;;;;;4754247;30;20134;-85
2021/08/23 11:10:03;;;;;;;5.30;2.95;;;;;;;;;;4835273;29;20094;-86
2021/08/23 11:13:38;;;;;;;4.82;2.70;;;;;;;;;;4823036;29;20043;-85
2021/08/23 11:19:51;;;;;;;5.30;3.10;;;;;;;;;;4805320;29;20046;-87
2021/08/23 11:22:17;;;;;;;6.55;3.25;;;;;;;;;;4822174;29;20419;-85
2021/08/23 11:24:48;;;;;;;4.95;3.05;;;;;;;;;;4811023;29;20030;-84
2021/08/23 11:27:13;;;;;;;4.85;3.20;;;;;;;;;;4845104;29;20044;-85
2021/08/23 11:29:47;;;;;;;6.17;3.77;;;;;;;;;;4830572;29;20025;-86
2021/08/23 11:32:12;;;;;;;6.10;3.30;;;;;;;;;;4829943;29;20025;-85
2021/08/23 11:34:38;;;;;;;5.63;3.50;;;;;;;;;;4814976;29;20065;-84
2021/08/23 11:37:05;;;;;;;6.32;3.90;;;;;;;;;;4829988;29;20034;-85
2021/08/23 11:39:31;;;;;;;7.00;3.85;;;;;;;;;;4831842;29;20041;-85
2021/08/23 11:42:06;;;;;;;6.88;4.20;;;;;;;;;;4847856;29;20025;-85
2021/08/23 11:44:32;;;;;;;6.80;3.75;;;;;;;;;;4834404;29;20029;-86
2021/08/23 11:46:59;;;;;;;6.03;3.60;;;;;;;;;;4848606;29;20064;-86
2021/08/23 11:49:36;;;;;;;5.10;3.30;;;;;;;;;;4831948;29;20027;-86
2021/08/23 11:52:12;;;;;;;5.55;3.40;;;;;;;;;;4848711;29;20037;-86
2021/08/23 11:54:40;;;;;;;6.00;3.33;;;;;;;;;;4863518;29;20033;-85
2021/08/23 11:57:06;;;;;;;4.53;2.90;;;;;;;;;;4832778;29;20037;-86
2021/08/23 11:59:31;;;;;;;4.47;2.75;;;;;;;;;;4846966;29;20071;-88
2021/08/23 12:01:56;;;;;;;4.67;2.97;;;;;;;;;;4842485;29;20066;-89
2021/08/23 12:04:23;;;;;;;5.07;2.93;;;;;;;;;;4848189;29;20077;-88
2021/08/23 12:06:55;;;;;;;7.90;3.50;;;;;;;;;;4863248;29;20489;-87
2021/08/23 12:09:21;;;;;;;9.07;3.92;;;;;;;;;;4863072;29;20025;-87
2021/08/23 12:11:46;;;;;;;8.10;3.90;;;;;;;;;;4845023;29;20032;-88
2021/08/23 12:14:19;;;;;;;8.02;4.00;;;;;;;;;;4840126;29;20119;-89
2021/08/23 12:16:45;;;;;;;9.43;4.18;;;;;;;;;;4862954;29;20036;-88
2021/08/23 12:19:11;;;;;;;7.13;4.57;;;;;;;;;;4838072;29;20030;-88
2021/08/23 12:21:37;;;;;;;8.48;4.63;;;;;;;;;;4848059;29;20028;-88
2021/08/23 12:24:08;;;;;;;7.97;5.07;;;;;;;;;;4863834;29;20032;-88
2021/08/23 12:26:38;;;;;;;7.18;4.95;;;;;;;;;;4863452;29;20116;-88
2021/08/23 12:29:10;;;;;;;9.45;5.38;;;;;;;;;;4848393;29;20032;-89
2021/08/23 12:31:37;;;;;;;11.05;5.40;;;;;;;;;;4863445;29;20451;-87
2021/08/23 12:34:24;;;;;;;7.55;4.57;;;;;;;;;;4863580;29;20031;-88
2021/08/23 12:36:49;;;;;;;8.55;4.38;;;;;;;;;;4863569;29;20033;-88
2021/08/23 12:39:15;;;;;;;7.03;3.93;;;;;;;;;;4848195;29;20090;-87
2021/08/23 12:41:42;;;;;;;6.23;3.90;;;;;;;;;;4848276;29;20025;-88
2021/08/23 12:44:07;;;;;;;;;;;;;;;;;;4863876;29;20146;-87
2021/08/23 12:46:32;;;;;;;6.45;3.67;;;;;;;;;;4863391;29;19963;-87
2021/08/23 12:48:58;;;;;;;6.73;3.70;;;;;;;;;;4848006;29;20085;-87
2021/08/23 12:51:23;;;;;;;7.23;3.67;;;;;;;;;;4847969;29;20140;-87
2021/08/23 12:53:48;;;;;;;6.67;3.77;;;;;;;;;;4848275;29;20040;-88
2021/08/23 12:56:14;;;;;;;6.97;4.27;;;;;;;;;;4847906;29;20397;-88
2021/08/23 12:58:39;;;;;;;10.80;5.32;;;;;;;;;;4847812;29;20029;-88
2021/08/23 13:01:05;;;;;;;7.73;4.73;;;;;;;;;;4847509;29;20188;-88
2021/08/23 13:03:30;;;;;;;8.90;4.80;;;;;;;;;;4847775;29;20036;-88
2021/08/23 13:05:56;;;;;;;6.57;4.00;;;;;;;;;;4848067;29;20120;-88
2021/08/23 13:08:21;;;;;;;8.10;4.63;;;;;;;;;;4847773;29;20496;-87
2021/08/23 13:10:46;;;;;;;9.53;5.20;;;;;;;;;;4847676;29;20024;-88
2021/08/23 13:13:12;;;;;;;8.63;4.70;;;;;;;;;;4847648;29;20470;-87
2021/08/23 13:15:56;;;;;;;9.18;4.93;;;;;;;;;;4847533;29;20546;-88
2021/08/23 13:18:22;;;;;;;8.52;4.93;;;;;;;;;;4832390;29;20037;-87
2021/08/23 13:20:47;;;;;;;33.20;20.93;;;;;;;;;;4847307;29;20024;-87
2021/08/23 13:23:14;;;;;;;116.67;66.70;;;;;;;;;;4847277;29;20025;-87
2021/08/23 13:25:44;;;;;;;;;;;;;;;;;;4848050;29;20037;-87
2021/08/23 13:28:13;;;;;;;102.65;63.15;;;;;;;;;;4863341;29;19912;-88
2021/08/23 13:30:39;;;;;;;67.57;41.70;;;;;;;;;;4831862;29;20531;-91
2021/08/23 13:33:04;;;;;;;27.83;17.13;;;;;;;;;;4832419;29;20036;-90
2021/08/23 13:35:36;;;;;;;13.30;7.03;;;;;;;;;;4832446;29;20025;-90
2021/08/23 13:38:03;;;;;;;10.85;6.10;;;;;;;;;;4863052;29;20025;-90
2021/08/23 13:40:30;;;;;;;9.60;5.00;;;;;;;;;;4863173;29;20033;-89
2021/08/23 13:42:55;;;;;;;9.73;4.63;;;;;;;;;;4847681;29;20498;-90
2021/08/23 13:45:29;;;;;;;8.70;5.30;;;;;;;;;;4842980;29;20144;-90
2021/08/23 13:47:54;;;;;;;8.02;4.93;;;;;;;;;;4834009;29;20033;-89
2021/08/23 13:50:20;;;;;;;12.07;6.20;;;;;;;;;;4845136;29;20444;-88
2021/08/23 13:52:45;;;;;;;12.23;6.13;;;;;;;;;;4843109;29;20022;-89
2021/08/23 13:55:10;;;;;;;11.07;5.70;;;;;;;;;;4827813;29;20081;-88
2021/08/23 13:57:36;;;;;;;11.50;5.57;;;;;;;;;;4842230;29;20029;-89
2021/08/23 14:00:02;;;;;;;12.67;6.57;;;;;;;;;;4861796;29;20483;-88
2021/08/23 14:02:28;;;;;;;12.98;6.70;;;;;;;;;;4833230;29;20577;-87
2021/08/23 14:04:53;;;;;;;13.30;9.05;;;;;;;;;;4840862;29;20037;-89
2021/08/23 14:07:18;;;;;;;12.27;6.77;;;;;;;;;;4837376;29;20025;-88
2021/08/23 14:09:44;;;;;;;11.07;5.33;;;;;;;;;;4844724;29;20025;-90
2021/08/23 14:12:12;;;;;;;9.27;5.33;;;;;;;;;;4834153;29;20030;-88
2021/08/23 14:14:40;;;;;;;9.10;6.07;;;;;;;;;;4841665;29;20025;-90
2021/08/23 14:17:05;;;;;;;10.95;6.30;;;;;;;;;;4861148;29;20486;-89
2021/08/23 14:19:31;;;;;;;15.10;7.83;;;;;;;;;;4842733;29;20037;-88
2021/08/23 14:21:57;;;;;;;10.38;6.60;;;;;;;;;;4846325;29;20025;-88
2021/08/23 14:24:22;;;;;;;11.67;5.77;;;;;;;;;;4842858;29;20025;-88
2021/08/23 14:26:48;;;;;;;9.20;5.00;;;;;;;;;;4842351;29;20463;-88
2021/08/23 14:29:13;;;;;;;8.67;5.47;;;;;;;;;;4831282;29;20029;-88
2021/08/23 14:31:39;;;;;;;9.50;5.70;;;;;;;;;;4844252;29;20096;-89
2021/08/23 14:34:06;;;;;;;9.77;5.07;;;;;;;;;;4842826;29;20035;-89
2021/08/23 14:36:31;;;;;;;8.57;5.38;;;;;;;;;;4847254;29;20025;-87
2021/08/23 14:38:57;;;;;;;9.43;5.60;;;;;;;;;;4842582;29;20567;-87
2021/08/23 14:41:22;;;;;;;8.67;5.10;;;;;;;;;;4828942;29;20025;-88
2021/08/23 14:43:47;;;;;;;8.70;5.30;;;;;;;;;;4842581;29;20041;-87
2021/08/23 14:46:13;;;;;;;11.07;5.57;;;;;;;;;;4827196;29;20055;-88
2021/08/23 14:48:40;;;;;;;10.30;5.40;;;;;;;;;;4832384;29;20033;-87
2021/08/23 14:51:06;;;;;;;11.00;5.53;;;;;;;;;;4832452;29;20036;-87
2021/08/23 14:53:31;;;;;;;9.70;5.40;;;;;;;;;;4842571;29;20108;-88
2021/08/23 14:55:57;;;;;;;8.27;4.93;;;;;;;;;;4837440;29;20034;-87
2021/08/23 14:58:22;;;;;;;8.63;5.17;;;;;;;;;;4844085;29;20025;-88
2021/08/23 15:00:47;;;;;;;10.67;5.23;;;;;;;;;;4840641;29;20033;-87
2021/08/23 15:03:16;;;;;;;8.03;4.87;;;;;;;;;;4836028;29;20032;-88
2021/08/23 15:05:42;;;;;;;8.60;4.18;;;;;;;;;;4841433;29;20021;-88
2021/08/23 15:08:08;;;;;;;7.28;4.07;;;;;;;;;;4838174;29;20029;-89
2021/08/23 15:10:33;;;;;;;7.63;3.90;;;;;;;;;;4842233;29;20057;-88
2021/08/23 15:12:59;;;;;;;6.47;3.40;;;;;;;;;;4841458;29;20566;-88
2021/08/23 15:15:24;;;;;;;5.90;3.73;;;;;;;;;;4839345;29;20029;-88
2021/08/23 15:17:51;;;;;;;9.73;4.40;;;;;;;;;;4844916;29;20040;-85
2021/08/23 15:20:17;;;;;;;7.43;4.30;;;;;;;;;;4843544;29;20033;-84
2021/08/23 15:22:42;;;;;;;9.23;4.70;;;;;;;;;;4844915;29;20076;-84
2021/08/23 15:25:08;;;;;;;7.90;4.40;;;;;;;;;;4847818;29;20036;-84
2021/08/23 15:27:33;;;;;;;6.90;3.93;;;;;;;;;;4863888;29;20036;-85
2021/08/23 15:29:59;;;;;;;6.77;3.83;;;;;;;;;;4864090;29;20036;-84
2021/08/23 15:32:24;;;;;;;5.60;3.40;;;;;;;;;;4854863;29;20034;-84
2021/08/23 15:34:50;;;;;;;8.27;3.87;;;;;;;;;;4844837;29;20034;-84
2021/08/23 15:37:16;;;;;;;8.18;4.03;;;;;;;;;;4829920;29;20032;-84
2021/08/23 15:39:42;;;;;;;7.37;4.43;;;;;;;;;;4829708;29;20388;-85
2021/08/23 15:42:09;;;;;;;8.43;3.80;;;;;;;;;;4829882;29;20052;-84
2021/08/23 15:44:34;;;;;;;7.65;3.70;;;;;;;;;;4830171;29;20037;-84
2021/08/23 15:46:59;;;;;;;6.40;3.83;;;;;;;;;;4843494;29;20032;-84
2021/08/23 15:49:25;;;;;;;6.93;3.97;;;;;;;;;;4848803;29;20049;-84
2021/08/23 15:51:50;;;;;;;5.80;3.57;;;;;;;;;;4848094;29;20375;-84
2021/08/23 15:54:15;;;;;;;5.83;3.60;;;;;;;;;;4848271;29;20021;-84
2021/08/23 15:56:42;;;;;;;5.50;3.43;;;;;;;;;;4847980;29;20035;-84
2021/08/23 15:59:08;;;;;;;6.50;3.92;;;;;;;;;;4848770;29;20639;-85
2021/08/23 16:01:34;;;;;;;7.63;3.80;;;;;;;;;;4847955;29;20063;-85
2021/08/23 16:03:59;;;;;;;7.82;4.47;;;;;;;;;;4848116;29;20029;-85
2021/08/23 16:06:24;;;;;;;7.33;4.27;;;;;;;;;;4847791;29;20566;-85
2021/08/23 16:08:50;;;;;;;7.37;4.17;;;;;;;;;;4847962;29;20033;-85
2021/08/23 16:11:15;;;;;;;10.30;4.53;;;;;;;;;;4847516;29;20059;-85
2021/08/23 16:13:41;;;;;;;6.50;4.20;;;;;;;;;;4847996;29;20100;-84
2021/08/23 16:16:06;;;;;;;8.17;3.97;;;;;;;;;;4854541;29;20029;-86
2021/08/23 16:18:32;;;;;;;7.87;4.47;;;;;;;;;;4844567;29;20025;-85
2021/08/23 16:20:58;;;;;;;8.23;4.43;;;;;;;;;;4829199;29;20037;-85
2021/08/23 16:23:23;;;;;;;7.80;4.45;;;;;;;;;;4829480;29;20577;-85
2021/08/23 16:25:48;;;;;;;7.83;4.47;;;;;;;;;;4829389;29;20053;-85
2021/08/23 16:28:14;;;;;;;8.87;4.77;;;;;;;;;;4844301;29;20025;-85
2021/08/23 16:30:40;;;;;;;9.60;5.00;;;;;;;;;;4819815;29;20104;-85
2021/08/23 16:33:05;;;;;;;8.32;5.10;;;;;;;;;;4844309;29;20041;-85
2021/08/23 16:35:31;;;;;;;8.10;4.30;;;;;;;;;;4843961;29;20041;-86
2021/08/23 16:37:56;;;;;;;8.30;4.22;;;;;;;;;;4829409;29;20022;-85
2021/08/23 16:40:23;;;;;;;7.83;4.00;;;;;;;;;;4844318;29;20026;-85
2021/08/23 16:42:48;;;;;;;7.80;3.45;;;;;;;;;;4829425;29;20037;-85
2021/08/23 16:45:13;;;;;;;5.17;2.80;;;;;;;;;;4855952;29;20112;-85
2021/08/23 16:47:39;;;;;;;4.30;2.40;;;;;;;;;;4862623;29;20043;-85
2021/08/23 16:50:05;;;;;;;4.03;2.17;;;;;;;;;;4862766;29;20025;-85
2021/08/23 16:52:32;;;;;;;5.30;2.23;;;;;;;;;;4846912;29;20036;-86
2021/08/23 16:54:57;;;;;;;4.90;2.17;;;;;;;;;;4847423;29;20029;-85
2021/08/23 16:57:23;;;;;;;3.43;2.13;;;;;;;;;;4862573;29;20052;-85
2021/08/23 16:59:49;;;;;;;4.05;2.30;;;;;;;;;;4862513;29;20129;-85
2021/08/23 17:02:15;;;;;;;3.77;1.90;;;;;;;;;;4862286;29;20538;-85
2021/08/23 17:04:40;;;;;;;3.80;1.80;;;;;;;;;;4862374;29;20037;-85
2021/08/23 17:07:10;;;;;;;3.70;1.80;;;;;;;;;;4862411;29;20115;-85
2021/08/23 17:09:35;;;;;;;4.03;1.90;;;;;;;;;;4847368;29;20108;-86
2021/08/23 17:12:00;;;;;;;3.27;1.83;;;;;;;;;;4862125;29;20035;-85
2021/08/23 17:14:26;;;;;;;4.93;1.80;;;;;;;;;;4852366;29;20035;-85
2021/08/23 17:16:51;;;;;;;3.50;1.90;;;;;;;;;;4846498;29;20028;-85
2021/08/23 17:19:17;;;;;;;3.57;1.67;;;;;;;;;;4846665;29;20029;-84
2021/08/23 17:21:42;;;;;;;4.20;1.75;;;;;;;;;;4862148;29;20037;-84
2021/08/23 17:24:08;;;;;;;5.30;1.73;;;;;;;;;;4846708;29;20037;-85
2021/08/23 17:26:34;;;;;;;4.17;1.53;;;;;;;;;;4846610;29;20379;-85
2021/08/23 17:28:59;;;;;;;3.50;1.80;;;;;;;;;;4861822;29;20025;-86
2021/08/23 17:31:24;;;;;;;2.50;1.57;;;;;;;;;;4861566;29;20557;-85
2021/08/23 17:33:50;;;;;;;2.97;1.50;;;;;;;;;;4846633;29;20131;-85
2021/08/23 17:36:15;;;;;;;2.67;1.50;;;;;;;;;;4861883;29;20033;-85
2021/08/23 17:38:41;;;;;;;3.87;2.07;;;;;;;;;;4846389;29;20044;-85
2021/08/23 17:41:07;;;;;;;4.07;1.73;;;;;;;;;;4846253;29;20035;-85
2021/08/23 17:43:33;;;;;;;;;;;;;;;;;;4844781;29;20025;-85
2021/08/23 17:45:58;;;;;;;4.30;1.40;;;;;;;;;;4858839;29;20399;-85
2021/08/23 17:48:23;;;;;;;2.63;1.60;;;;;;;;;;4842296;29;20029;-85
2021/08/23 17:50:49;;;;;;;5.50;2.33;;;;;;;;;;4858787;29;20546;-85
2021/08/23 17:53:14;;;;;;;4.73;2.30;;;;;;;;;;4845428;29;20032;-85
2021/08/23 17:55:40;;;;;;;2.43;1.40;;;;;;;;;;4861312;29;20111;-84
2021/08/23 17:58:05;;;;;;;3.10;1.80;;;;;;;;;;4846442;29;20028;-85
2021/08/23 18:00:31;;;;;;;3.33;1.60;;;;;;;;;;4861756;29;20554;-85
2021/08/23 18:02:56;;;;;;;3.97;1.70;;;;;;;;;;4861202;29;20040;-84
2021/08/23 18:05:22;;;;;;;4.30;1.53;;;;;;;;;;4861361;29;20553;-85
2021/08/23 18:07:47;;;;;;;4.33;1.90;;;;;;;;;;4845983;29;20025;-85
2021/08/23 18:10:14;;;;;;;5.53;1.97;;;;;;;;;;4846025;29;20027;-85
2021/08/23 18:12:40;;;;;;;6.72;3.38;;;;;;;;;;4846704;29;20435;-85
2021/08/23 18:15:06;;;;;;;6.77;3.47;;;;;;;;;;4855778;29;20037;-85
2021/08/23 18:17:31;;;;;;;4.05;2.28;;;;;;;;;;4827806;29;20084;-85
2021/08/23 18:19:57;;;;;;;3.73;2.07;;;;;;;;;;4847218;29;20042;-85
2021/08/23 18:22:22;;;;;;;2.80;1.83;;;;;;;;;;4842747;29;20568;-85
2021/08/23 18:24:47;;;;;;;3.43;2.00;;;;;;;;;;4843107;29;20030;-85
2021/08/23 18:27:13;;;;;;;3.80;1.80;;;;;;;;;;4845791;29;20020;-85
2021/08/23 18:29:38;;;;;;;4.57;1.80;;;;;;;;;;4845825;29;20025;-85
2021/08/23 18:32:04;;;;;;;2.37;1.70;;;;;;;;;;4860980;29;20025;-85
2021/08/23 18:34:29;;;;;;;2.23;1.50;;;;;;;;;;4861735;29;20052;-85
2021/08/23 18:36:54;;;;;;;2.83;1.60;;;;;;;;;;4860995;29;20036;-85
2021/08/23 18:39:20;;;;;;;2.67;1.53;;;;;;;;;;4861056;29;20029;-85
2021/08/23 18:41:46;;;;;;;3.20;1.70;;;;;;;;;;4861172;29;20107;-88
2021/08/23 18:44:11;;;;;;;2.43;1.50;;;;;;;;;;4845898;29;20486;-85
2021/08/23 18:46:36;;;;;;;2.60;1.80;;;;;;;;;;4845574;29;20032;-86
2021/08/23 18:49:02;;;;;;;3.87;1.53;;;;;;;;;;4830561;29;20029;-84
2021/08/23 18:51:36;;;;;;;3.07;1.77;;;;;;;;;;4845188;29;20092;-86
2021/08/23 18:54:02;;;;;;;2.53;1.38;;;;;;;;;;4861892;29;20029;-83
2021/08/23 18:56:27;;;;;;;2.53;1.50;;;;;;;;;;4860817;29;20051;-84
2021/08/23 18:58:53;;;;;;;2.83;1.60;;;;;;;;;;4847284;29;20123;-84
2021/08/23 19:01:19;;;;;;;3.72;1.80;;;;;;;;;;4849109;29;20039;-85
2021/08/23 19:03:45;;;;;;;4.50;2.70;;;;;;;;;;4849418;29;20037;-84
2021/08/23 19:06:11;;;;;;;4.03;2.05;;;;;;;;;;4849874;29;20049;-85
2021/08/23 19:08:36;;;;;;;3.67;2.10;;;;;;;;;;4845773;29;20037;-83
2021/08/23 19:11:01;;;;;;;3.93;2.00;;;;;;;;;;4829827;29;20554;-85
2021/08/23 19:13:27;;;;;;;3.83;1.93;;;;;;;;;;4830798;29;20116;-83
2021/08/23 19:15:52;;;;;;;3.77;1.93;;;;;;;;;;4845176;29;20120;-81
2021/08/23 19:18:17;;;;;;;4.03;2.00;;;;;;;;;;4848147;29;20556;-84
2021/08/23 19:20:44;;;;;;;4.00;2.10;;;;;;;;;;4863890;29;20104;-83
2021/08/23 19:23:11;;;;;;;5.20;2.67;;;;;;;;;;4863533;29;20029;-83
2021/08/23 19:25:37;;;;;;;4.70;2.38;;;;;;;;;;4863741;29;20040;-83
2021/08/23 19:28:03;;;;;;;3.93;2.03;;;;;;;;;;4864273;29;20025;-86
2021/08/23 19:30:28;;;;;;;3.70;2.00;;;;;;;;;;4863521;29;20170;-83
2021/08/23 19:32:54;;;;;;;3.40;2.03;;;;;;;;;;4863054;29;20640;-84
2021/08/23 19:35:19;;;;;;;3.80;1.80;;;;;;;;;;4845024;29;20030;-83
2021/08/23 19:37:45;;;;;;;3.27;1.90;;;;;;;;;;4814557;29;20491;-83
2021/08/23 19:40:11;;;;;;;5.67;2.90;;;;;;;;;;4829566;29;20036;-84
2021/08/23 19:42:38;;;;;;;3.33;2.08;;;;;;;;;;4844876;29;20533;-83
2021/08/23 19:45:08;;;;;;;3.03;1.77;;;;;;;;;;4848834;29;20514;-82